Time;durP1;ratioP1;P1;durP2;ratioP2;P2;SDS_P1;SDS_P2;PMS_P1;PMS_P2;Temp;Humidity;BMP_temperature;BMP_pressure;BME280_temperature;BME280_humidity;BME280_pressure;Samples;Min_cycle;Max_cycle;Signal;HPM_P1;HPM_P2
2022/08/18 00:01:15;;;;;;;0.90;0.50;;;;;;;;;;5017093;28;20119;-72
2022/08/18 00:03:41;;;;;;;0.50;0.50;;;;;;;;;;5017224;28;20042;-72
2022/08/18 00:06:08;;;;;;;2.22;0.98;;;;;;;;;;5016557;28;20132;-73
2022/08/18 00:08:34;;;;;;;2.88;1.10;;;;;;;;;;5017130;28;20034;-73
2022/08/18 00:11:00;;;;;;;3.75;0.82;;;;;;;;;;5017204;28;20137;-72
2022/08/18 00:13:26;;;;;;;2.28;0.90;;;;;;;;;;5016559;28;20069;-73
2022/08/18 00:15:52;;;;;;;1.48;0.80;;;;;;;;;;5016656;28;20045;-73
2022/08/18 00:18:19;;;;;;;1.90;0.75;;;;;;;;;;5017268;28;20116;-73
2022/08/18 00:20:45;;;;;;;1.77;0.65;;;;;;;;;;5016421;28;20504;-73
2022/08/18 00:23:12;;;;;;;3.38;0.90;;;;;;;;;;5016719;28;20069;-73
2022/08/18 00:25:38;;;;;;;1.80;0.80;;;;;;;;;;5016910;28;20052;-73
2022/08/18 00:28:04;;;;;;;1.05;0.80;;;;;;;;;;5017110;28;20542;-73
2022/08/18 00:30:31;;;;;;;1.70;0.85;;;;;;;;;;5016457;28;20030;-73
2022/08/18 00:32:57;;;;;;;2.83;0.95;;;;;;;;;;5016765;28;20123;-73
2022/08/18 00:35:29;;;;;;;2.15;0.80;;;;;;;;;;5016455;28;20041;-73
2022/08/18 00:37:56;;;;;;;4.68;0.95;;;;;;;;;;5016081;28;20107;-73
2022/08/18 00:40:24;;;;;;;1.65;0.80;;;;;;;;;;5016838;28;20038;-73
2022/08/18 00:42:57;;;;;;;3.22;1.00;;;;;;;;;;5016750;28;20180;-73
2022/08/18 00:45:29;;;;;;;2.35;0.75;;;;;;;;;;5016776;28;20112;-73
2022/08/18 00:47:55;;;;;;;3.08;0.95;;;;;;;;;;5016462;28;20079;-73
2022/08/18 00:50:27;;;;;;;1.65;0.77;;;;;;;;;;5015836;28;20037;-73
2022/08/18 00:52:56;;;;;;;1.55;0.75;;;;;;;;;;5016686;28;20051;-73
2022/08/18 00:55:23;;;;;;;2.13;1.02;;;;;;;;;;5016592;28;20064;-72
2022/08/18 00:57:50;;;;;;;2.47;0.90;;;;;;;;;;4998292;28;20131;-73
2022/08/18 01:00:16;;;;;;;1.33;0.93;;;;;;;;;;5016475;28;20038;-73
2022/08/18 01:02:45;;;;;;;1.98;0.90;;;;;;;;;;5016192;28;20037;-73
2022/08/18 01:05:29;;;;;;;2.30;0.88;;;;;;;;;;5016226;28;20068;-73
2022/08/18 01:07:55;;;;;;;1.42;0.73;;;;;;;;;;5015415;28;20129;-73
2022/08/18 01:10:23;;;;;;;3.28;1.02;;;;;;;;;;5015443;28;20073;-73
2022/08/18 01:12:50;;;;;;;3.67;0.90;;;;;;;;;;5015423;28;20500;-73
2022/08/18 01:15:18;;;;;;;4.00;1.00;;;;;;;;;;5016252;28;20072;-73
2022/08/18 01:23:18;;;;;;;3.72;1.20;;;;;;;;;;5015067;28;20045;-73
2022/08/18 01:26:02;;;;;;;1.40;0.70;;;;;;;;;;5015395;28;20045;-72
2022/08/18 01:28:38;;;;;;;2.70;1.10;;;;;;;;;;5016097;28;20131;-73
2022/08/18 01:31:04;;;;;;;1.33;0.90;;;;;;;;;;5015532;28;20036;-73
2022/08/18 01:33:32;;;;;;;2.85;0.80;;;;;;;;;;5015114;28;20046;-73
2022/08/18 01:36:18;;;;;;;4.15;1.08;;;;;;;;;;5014838;28;20527;-73
2022/08/18 01:38:46;;;;;;;1.77;0.90;;;;;;;;;;5015245;28;20046;-73
2022/08/18 01:41:12;;;;;;;2.05;1.00;;;;;;;;;;5014978;28;20117;-73
2022/08/18 01:43:38;;;;;;;2.35;1.13;;;;;;;;;;5014912;28;20073;-73
2022/08/18 01:46:05;;;;;;;2.88;1.00;;;;;;;;;;5014726;28;20531;-73
2022/08/18 01:48:33;;;;;;;3.30;1.13;;;;;;;;;;5014929;28;20549;-73
2022/08/18 01:50:59;;;;;;;2.70;1.00;;;;;;;;;;5014591;28;20065;-73
2022/08/18 01:53:26;;;;;;;2.47;1.35;;;;;;;;;;5014775;28;20046;-73
2022/08/18 01:55:54;;;;;;;2.28;0.88;;;;;;;;;;5015387;28;20129;-73
2022/08/18 01:58:26;;;;;;;6.20;1.40;;;;;;;;;;5015003;28;20136;-73
2022/08/18 02:00:57;;;;;;;4.78;1.27;;;;;;;;;;5014628;28;20045;-73
2022/08/18 02:03:25;;;;;;;4.35;1.05;;;;;;;;;;5015270;28;20052;-72
2022/08/18 02:05:54;;;;;;;2.83;1.00;;;;;;;;;;5014452;28;20111;-73
2022/08/18 02:08:21;;;;;;;2.00;1.02;;;;;;;;;;5015782;28;20045;-72
2022/08/18 02:10:47;;;;;;;2.08;1.05;;;;;;;;;;5015209;28;20053;-73
2022/08/18 02:13:13;;;;;;;3.97;1.30;;;;;;;;;;5014943;28;20060;-73
2022/08/18 02:15:39;;;;;;;2.97;1.05;;;;;;;;;;5015541;28;20046;-73
2022/08/18 02:18:05;;;;;;;3.53;1.27;;;;;;;;;;5015129;28;20042;-72
2022/08/18 02:20:31;;;;;;;3.50;1.30;;;;;;;;;;5015116;28;20037;-72
2022/08/18 02:22:58;;;;;;;2.80;1.25;;;;;;;;;;5014994;28;20044;-73
2022/08/18 02:25:24;;;;;;;3.58;1.17;;;;;;;;;;5015262;28;20050;-72
2022/08/18 02:27:50;;;;;;;2.92;1.10;;;;;;;;;;5014993;28;20096;-72
2022/08/18 02:30:18;;;;;;;4.05;1.60;;;;;;;;;;5014640;28;20069;-73
2022/08/18 02:32:44;;;;;;;3.38;1.30;;;;;;;;;;5015225;28;20510;-73
2022/08/18 02:35:10;;;;;;;3.63;1.30;;;;;;;;;;5015388;28;20054;-72
2022/08/18 02:37:37;;;;;;;4.45;1.45;;;;;;;;;;5014843;28;20104;-72
2022/08/18 02:40:04;;;;;;;5.80;1.30;;;;;;;;;;5014907;28;20053;-73
2022/08/18 02:42:30;;;;;;;2.80;1.38;;;;;;;;;;5014832;28;20046;-73
2022/08/18 02:44:56;;;;;;;1.70;1.20;;;;;;;;;;5015457;28;20038;-73
2022/08/18 02:47:22;;;;;;;1.45;1.05;;;;;;;;;;5014801;28;20128;-73
2022/08/18 02:49:49;;;;;;;1.92;1.25;;;;;;;;;;5015347;28;20045;-73
2022/08/18 02:52:16;;;;;;;4.03;1.27;;;;;;;;;;5014624;28;20096;-73
2022/08/18 02:54:42;;;;;;;4.22;1.42;;;;;;;;;;5014479;28;20052;-73
2022/08/18 02:57:10;;;;;;;2.72;1.30;;;;;;;;;;5014726;28;20133;-73
2022/08/18 02:59:37;;;;;;;2.30;1.38;;;;;;;;;;5015234;28;20129;-73
2022/08/18 03:02:05;;;;;;;3.60;1.52;;;;;;;;;;5014729;28;20084;-73
2022/08/18 03:04:31;;;;;;;3.97;1.20;;;;;;;;;;5014717;28;20073;-73
2022/08/18 03:06:58;;;;;;;4.03;1.30;;;;;;;;;;5014467;28;20061;-73
2022/08/18 03:09:24;;;;;;;2.92;1.30;;;;;;;;;;5014736;28;20049;-73
2022/08/18 03:11:51;;;;;;;4.18;1.55;;;;;;;;;;5014149;28;20050;-73
2022/08/18 03:14:17;;;;;;;2.42;1.25;;;;;;;;;;5017199;28;20041;-72
2022/08/18 03:16:46;;;;;;;3.10;1.60;;;;;;;;;;5017506;28;20089;-73
2022/08/18 03:19:16;;;;;;;5.70;1.10;;;;;;;;;;5018115;28;20084;-73
2022/08/18 03:21:46;;;;;;;3.85;1.40;;;;;;;;;;5017844;28;20069;-73
2022/08/18 03:24:12;;;;;;;2.25;1.27;;;;;;;;;;5017805;28;20069;-73
2022/08/18 03:26:41;;;;;;;2.03;1.05;;;;;;;;;;5017721;28;20049;-73
2022/08/18 03:29:08;;;;;;;1.13;1.00;;;;;;;;;;5017993;28;20048;-73
2022/08/18 03:31:37;;;;;;;2.63;1.08;;;;;;;;;;5017827;28;20038;-73
2022/08/18 03:34:04;;;;;;;4.25;1.42;;;;;;;;;;5017853;28;20076;-73
2022/08/18 03:36:32;;;;;;;3.65;1.35;;;;;;;;;;5017588;28;20054;-73
2022/08/18 03:38:59;;;;;;;2.30;1.20;;;;;;;;;;5017224;28;20104;-72
2022/08/18 03:41:26;;;;;;;1.73;1.02;;;;;;;;;;5017132;28;20053;-73
2022/08/18 03:43:52;;;;;;;2.28;1.55;;;;;;;;;;5017423;28;20120;-73
2022/08/18 03:46:20;;;;;;;1.85;1.40;;;;;;;;;;5017438;28;20045;-73
2022/08/18 03:48:48;;;;;;;3.42;1.35;;;;;;;;;;5017060;28;20038;-73
2022/08/18 03:51:18;;;;;;;1.55;1.40;;;;;;;;;;5016850;28;20111;-73
2022/08/18 03:53:47;;;;;;;3.33;1.40;;;;;;;;;;5017515;28;20041;-72
2022/08/18 03:56:17;;;;;;;1.58;1.35;;;;;;;;;;5017031;28;20454;-73
2022/08/18 03:58:47;;;;;;;2.40;1.52;;;;;;;;;;5017235;28;20096;-73
2022/08/18 04:01:16;;;;;;;3.47;1.60;;;;;;;;;;5017299;28;20039;-73
2022/08/18 04:03:43;;;;;;;2.47;1.40;;;;;;;;;;5017034;28;20042;-73
2022/08/18 04:06:17;;;;;;;2.05;1.58;;;;;;;;;;5017181;28;20519;-74
2022/08/18 04:08:43;;;;;;;1.73;1.20;;;;;;;;;;5017858;28;20037;-73
2022/08/18 04:11:11;;;;;;;2.50;1.40;;;;;;;;;;5016913;28;20034;-72
2022/08/18 04:13:38;;;;;;;3.53;1.40;;;;;;;;;;5017481;28;20547;-73
2022/08/18 04:16:04;;;;;;;2.80;1.40;;;;;;;;;;5017103;28;20084;-73
2022/08/18 04:18:31;;;;;;;3.28;1.50;;;;;;;;;;5016783;28;20148;-73
2022/08/18 04:21:01;;;;;;;3.60;1.33;;;;;;;;;;5016878;28;20037;-73
2022/08/18 04:23:27;;;;;;;2.97;1.70;;;;;;;;;;5016970;28;20065;-73
2022/08/18 04:25:59;;;;;;;2.45;1.60;;;;;;;;;;5016432;28;20049;-73
2022/08/18 04:28:26;;;;;;;2.75;1.40;;;;;;;;;;5016628;28;20038;-73
2022/08/18 04:30:52;;;;;;;4.70;1.75;;;;;;;;;;5016513;28;20046;-73
2022/08/18 04:33:19;;;;;;;3.92;1.60;;;;;;;;;;5016798;28;20069;-73
2022/08/18 04:35:45;;;;;;;3.30;1.75;;;;;;;;;;5016947;28;20488;-73
2022/08/18 04:38:12;;;;;;;2.17;1.92;;;;;;;;;;5016697;28;20049;-73
2022/08/18 04:40:40;;;;;;;5.00;1.58;;;;;;;;;;5017064;28;20037;-73
2022/08/18 04:43:10;;;;;;;3.35;1.60;;;;;;;;;;5016854;28;20346;-73
2022/08/18 04:45:38;;;;;;;2.65;1.60;;;;;;;;;;5016440;28;20530;-72
2022/08/18 04:48:05;;;;;;;5.78;1.70;;;;;;;;;;5016225;28;20038;-73
2022/08/18 04:50:31;;;;;;;2.75;1.50;;;;;;;;;;5016335;28;20044;-73
2022/08/18 04:55:50;;;;;;;4.30;1.70;;;;;;;;;;5015804;28;20037;-73
2022/08/18 04:58:17;;;;;;;2.80;1.70;;;;;;;;;;5016976;28;20468;-73
2022/08/18 05:00:44;;;;;;;2.92;1.63;;;;;;;;;;5016358;28;20120;-73
2022/08/18 05:03:10;;;;;;;1.85;1.40;;;;;;;;;;5016263;28;20049;-73
2022/08/18 05:05:36;;;;;;;2.88;1.40;;;;;;;;;;5016023;28;20046;-73
2022/08/18 05:08:03;;;;;;;2.65;1.58;;;;;;;;;;5016055;28;20499;-73
2022/08/18 05:10:29;;;;;;;3.40;1.58;;;;;;;;;;4998742;28;20416;-73
2022/08/18 05:12:56;;;;;;;3.40;1.40;;;;;;;;;;5016241;28;20064;-73
2022/08/18 05:15:25;;;;;;;2.47;1.55;;;;;;;;;;5016519;28;20042;-73
2022/08/18 05:17:51;;;;;;;3.58;1.35;;;;;;;;;;5016170;28;20088;-73
2022/08/18 05:20:17;;;;;;;2.42;1.38;;;;;;;;;;5015488;28;20037;-73
2022/08/18 05:22:44;;;;;;;3.13;1.48;;;;;;;;;;5015895;28;20476;-72
2022/08/18 05:25:11;;;;;;;2.72;1.48;;;;;;;;;;5015996;28;20053;-73
2022/08/18 05:27:39;;;;;;;3.55;1.60;;;;;;;;;;5016341;28;20477;-73
2022/08/18 05:30:06;;;;;;;3.88;1.50;;;;;;;;;;5015807;28;20104;-73
2022/08/18 05:32:39;;;;;;;1.83;1.48;;;;;;;;;;5028631;28;20438;-73
2022/08/18 05:35:15;;;;;;;5.25;1.50;;;;;;;;;;5027832;28;20050;-73
2022/08/18 05:37:50;;;;;;;2.80;1.10;;;;;;;;;;5025609;28;20050;-73
2022/08/18 05:40:16;;;;;;;3.63;1.20;;;;;;;;;;5025803;28;20128;-72
2022/08/18 05:42:42;;;;;;;1.67;1.20;;;;;;;;;;5025360;28;20459;-73
2022/08/18 05:45:12;;;;;;;3.30;1.30;;;;;;;;;;5026235;28;20050;-73
2022/08/18 05:47:39;;;;;;;2.75;1.35;;;;;;;;;;5023952;28;20071;-72
2022/08/18 05:50:09;;;;;;;2.10;1.30;;;;;;;;;;5025410;28;20049;-73
2022/08/18 05:52:35;;;;;;;;;;;;;;;;;;5025118;28;20041;-72
2022/08/18 05:58:19;;;;;;;5.72;1.33;;;;;;;;;;5022230;28;20038;-72
2022/08/18 06:00:52;;;;;;;3.20;1.90;;;;;;;;;;5025427;28;20124;-72
2022/08/18 06:03:24;;;;;;;3.17;1.58;;;;;;;;;;5034705;28;20075;-73
2022/08/18 06:05:50;;;;;;;4.18;1.60;;;;;;;;;;5021403;28;20542;-74
2022/08/18 06:08:18;;;;;;;2.28;1.45;;;;;;;;;;5014035;28;20066;-73
2022/08/18 06:10:47;;;;;;;2.75;1.40;;;;;;;;;;5014919;28;20465;-73
2022/08/18 06:13:14;;;;;;;4.22;1.65;;;;;;;;;;5013737;28;20042;-73
2022/08/18 06:15:40;;;;;;;4.50;1.33;;;;;;;;;;5015311;28;20475;-73
2022/08/18 06:18:10;;;;;;;3.95;1.40;;;;;;;;;;5014715;28;20054;-72
2022/08/18 06:20:42;;;;;;;2.03;1.20;;;;;;;;;;5030248;28;20061;-72
2022/08/18 06:23:20;;;;;;;4.43;1.30;;;;;;;;;;5032319;28;20048;-73
2022/08/18 06:26:05;;;;;;;2.80;1.20;;;;;;;;;;5032341;28;20042;-73
2022/08/18 06:28:38;;;;;;;1.70;1.10;;;;;;;;;;5033852;28;20396;-73
2022/08/18 06:31:10;;;;;;;3.15;1.35;;;;;;;;;;5028533;28;20041;-73
2022/08/18 06:33:55;;;;;;;2.55;1.40;;;;;;;;;;5034547;28;20045;-73
2022/08/18 06:36:24;;;;;;;4.47;1.20;;;;;;;;;;5034355;28;20057;-73
2022/08/18 06:38:56;;;;;;;4.85;1.30;;;;;;;;;;5016664;28;20103;-73
2022/08/18 06:41:32;;;;;;;2.40;0.93;;;;;;;;;;5014239;28;20049;-73
2022/08/18 06:44:00;;;;;;;3.70;1.35;;;;;;;;;;5023961;28;20044;-73
2022/08/18 06:46:32;;;;;;;2.80;1.15;;;;;;;;;;5034501;28;20124;-74
2022/08/18 06:49:02;;;;;;;1.90;1.00;;;;;;;;;;5037256;28;20041;-73
2022/08/18 06:51:28;;;;;;;3.10;1.33;;;;;;;;;;5038000;28;20045;-73
2022/08/18 06:53:57;;;;;;;4.78;1.10;;;;;;;;;;5036975;28;20034;-73
2022/08/18 06:56:25;;;;;;;3.20;0.93;;;;;;;;;;5018501;28;20089;-73
2022/08/18 06:58:54;;;;;;;2.67;1.20;;;;;;;;;;5017789;28;20121;-73
2022/08/18 07:01:22;;;;;;;4.25;1.15;;;;;;;;;;5018772;28;20077;-74
2022/08/18 07:03:55;;;;;;;5.05;1.60;;;;;;;;;;5038113;28;20037;-73
2022/08/18 07:06:21;;;;;;;2.95;1.20;;;;;;;;;;5037379;28;20127;-73
2022/08/18 07:08:50;;;;;;;3.33;1.20;;;;;;;;;;5038105;28;20037;-73
2022/08/18 07:11:25;;;;;;;2.42;1.08;;;;;;;;;;5037717;28;20044;-73
2022/08/18 07:13:53;;;;;;;2.78;1.35;;;;;;;;;;5036970;28;20565;-73
2022/08/18 07:16:22;;;;;;;3.35;1.30;;;;;;;;;;5036771;28;20530;-73
2022/08/18 07:18:50;;;;;;;4.20;1.45;;;;;;;;;;5037521;28;20041;-73
2022/08/18 07:21:27;;;;;;;4.63;1.17;;;;;;;;;;5035703;28;20040;-73
2022/08/18 07:23:58;;;;;;;4.18;2.15;;;;;;;;;;5036299;28;20072;-73
2022/08/18 07:26:24;;;;;;;3.15;1.58;;;;;;;;;;5035970;28;20581;-73
2022/08/18 07:28:51;;;;;;;6.80;1.60;;;;;;;;;;5035959;28;20048;-73
2022/08/18 07:31:18;;;;;;;1.80;1.20;;;;;;;;;;5036554;28;20056;-74
2022/08/18 07:33:59;;;;;;;3.75;1.10;;;;;;;;;;5036293;28;20033;-73
2022/08/18 07:36:28;;;;;;;6.05;1.17;;;;;;;;;;5032498;28;20547;-74
2022/08/18 07:38:57;;;;;;;4.53;1.05;;;;;;;;;;5036289;28;20045;-73
2022/08/18 07:41:39;;;;;;;2.88;1.00;;;;;;;;;;5036450;28;20037;-73
2022/08/18 07:44:19;;;;;;;8.75;0.90;;;;;;;;;;5034275;28;20050;-73
2022/08/18 07:47:12;;;;;;;2.83;1.00;;;;;;;;;;5036790;28;20499;-73
2022/08/18 07:49:39;;;;;;;3.10;0.90;;;;;;;;;;5027946;28;20045;-73
2022/08/18 07:52:07;;;;;;;3.47;1.10;;;;;;;;;;5036804;28;20034;-72
2022/08/18 07:54:39;;;;;;;3.33;0.93;;;;;;;;;;5036621;28;20522;-72
2022/08/18 07:57:28;;;;;;;2.47;1.15;;;;;;;;;;5036134;28;20060;-72
2022/08/18 08:00:03;;;;;;;3.33;1.08;;;;;;;;;;5024396;28;20045;-72
2022/08/18 08:02:30;;;;;;;1.42;0.68;;;;;;;;;;5033626;28;20065;-73
2022/08/18 08:05:02;;;;;;;2.08;0.70;;;;;;;;;;5034419;28;20045;-73
2022/08/18 08:07:31;;;;;;;2.15;0.73;;;;;;;;;;5034467;28;20079;-73
2022/08/18 08:10:06;;;;;;;2.85;1.20;;;;;;;;;;5025991;28;20038;-72
2022/08/18 08:12:36;;;;;;;3.25;1.25;;;;;;;;;;5015824;28;20034;-73
2022/08/18 08:15:21;;;;;;;3.00;0.90;;;;;;;;;;5016540;28;20496;-73
2022/08/18 08:18:03;;;;;;;1.90;0.70;;;;;;;;;;5016339;28;20052;-73
2022/08/18 08:20:38;;;;;;;3.58;1.00;;;;;;;;;;5028846;28;20056;-73
2022/08/18 08:23:24;;;;;;;4.55;1.08;;;;;;;;;;5007212;28;20056;-72
2022/08/18 08:25:53;;;;;;;2.80;0.88;;;;;;;;;;5030868;28;20063;-73
2022/08/18 08:28:38;;;;;;;2.63;0.95;;;;;;;;;;5017456;28;20067;-73
2022/08/18 08:31:27;;;;;;;1.42;0.70;;;;;;;;;;5023818;28;20044;-72
2022/08/18 08:33:58;;;;;;;3.53;0.80;;;;;;;;;;5014748;28;20045;-72
2022/08/18 08:36:30;;;;;;;5.43;0.90;;;;;;;;;;5015612;28;20050;-72
2022/08/18 08:39:03;;;;;;;3.40;0.93;;;;;;;;;;5016142;28;20121;-73
2022/08/18 08:41:34;;;;;;;3.50;0.82;;;;;;;;;;5015735;28;20125;-73
2022/08/18 08:44:05;;;;;;;4.32;1.33;;;;;;;;;;5015947;28;20745;-73
2022/08/18 08:46:36;;;;;;;4.07;1.00;;;;;;;;;;5016323;28;20135;-73
2022/08/18 08:49:05;;;;;;;2.58;0.90;;;;;;;;;;5016541;28;20049;-73
2022/08/18 08:51:41;;;;;;;4.25;0.80;;;;;;;;;;5026223;28;20037;-73
2022/08/18 08:54:22;;;;;;;4.72;0.80;;;;;;;;;;5035870;28;20072;-73
2022/08/18 08:56:49;;;;;;;2.67;0.82;;;;;;;;;;5035362;28;20049;-73
2022/08/18 08:59:16;;;;;;;3.63;0.88;;;;;;;;;;5034069;28;20048;-73
2022/08/18 09:02:01;;;;;;;2.33;0.85;;;;;;;;;;5033742;28;20125;-73
2022/08/18 09:04:30;;;;;;;1.80;1.00;;;;;;;;;;5035658;28;20033;-74
2022/08/18 09:07:15;;;;;;;2.65;0.80;;;;;;;;;;5035752;28;20065;-74
2022/08/18 09:09:53;;;;;;;2.60;1.00;;;;;;;;;;5035595;28;20388;-74
2022/08/18 09:12:35;;;;;;;3.65;1.70;;;;;;;;;;5035224;28;20038;-74
2022/08/18 09:15:16;;;;;;;3.70;1.00;;;;;;;;;;5035201;28;20116;-73
2022/08/18 09:17:57;;;;;;;2.75;0.90;;;;;;;;;;5036238;28;20046;-73
2022/08/18 09:20:24;;;;;;;2.05;0.88;;;;;;;;;;5035583;28;20572;-73
2022/08/18 09:22:53;;;;;;;2.15;0.95;;;;;;;;;;5035366;28;20496;-72
2022/08/18 09:25:31;;;;;;;2.95;1.00;;;;;;;;;;5035364;28;20049;-73
2022/08/18 09:28:12;;;;;;;3.03;0.90;;;;;;;;;;5035298;28;20042;-73
2022/08/18 09:30:41;;;;;;;3.60;0.70;;;;;;;;;;5035504;28;20052;-73
2022/08/18 09:33:10;;;;;;;3.97;0.77;;;;;;;;;;5035755;28;20056;-73
2022/08/18 09:35:42;;;;;;;5.75;0.85;;;;;;;;;;5035358;28;20049;-73
2022/08/18 09:44:13;;;;;;;3.33;0.82;;;;;;;;;;5020767;28;20041;-73
2022/08/18 09:46:41;;;;;;;1.40;0.90;;;;;;;;;;5035226;28;20052;-73
2022/08/18 09:49:26;;;;;;;3.25;1.00;;;;;;;;;;5034964;28;20037;-73
2022/08/18 09:51:53;;;;;;;3.28;1.00;;;;;;;;;;5035004;28;20061;-73
2022/08/18 09:54:21;;;;;;;2.45;0.70;;;;;;;;;;5034539;28;20488;-73
2022/08/18 09:56:48;;;;;;;2.08;0.70;;;;;;;;;;5003992;28;20054;-74
2022/08/18 09:59:32;;;;;;;2.03;0.70;;;;;;;;;;5013172;28;20038;-74
2022/08/18 10:01:59;;;;;;;2.42;0.80;;;;;;;;;;5013958;28;20116;-73
2022/08/18 10:04:27;;;;;;;3.60;1.00;;;;;;;;;;5013677;28;20099;-73
2022/08/18 10:06:54;;;;;;;3.65;0.70;;;;;;;;;;5011425;28;20141;-73
2022/08/18 10:09:20;;;;;;;3.85;1.15;;;;;;;;;;5012986;28;20129;-73
2022/08/18 10:11:55;;;;;;;1.20;0.63;;;;;;;;;;5008852;28;20133;-73
2022/08/18 10:14:24;;;;;;;3.88;0.85;;;;;;;;;;5030827;28;20052;-74
2022/08/18 10:17:02;;;;;;;1.35;0.70;;;;;;;;;;5031175;28;20059;-73
2022/08/18 10:19:48;;;;;;;2.03;0.77;;;;;;;;;;5032132;28;20072;-73
2022/08/18 10:22:30;;;;;;;2.90;0.90;;;;;;;;;;5032981;28;20053;-73
2022/08/18 10:24:58;;;;;;;3.15;0.68;;;;;;;;;;5022189;28;20562;-72
2022/08/18 10:27:33;;;;;;;1.60;0.65;;;;;;;;;;5033153;28;20049;-72
2022/08/18 10:29:59;;;;;;;1.38;0.60;;;;;;;;;;5033851;28;20091;-72
2022/08/18 10:32:46;;;;;;;2.50;0.70;;;;;;;;;;5033048;28;20076;-72
2022/08/18 10:35:35;;;;;;;4.38;0.90;;;;;;;;;;5022754;28;20508;-73
2022/08/18 10:38:13;;;;;;;1.70;0.77;;;;;;;;;;5026481;28;20049;-72
2022/08/18 10:40:43;;;;;;;2.65;0.80;;;;;;;;;;5032130;28;20152;-72
2022/08/18 10:43:41;;;;;;;1.60;0.70;;;;;;;;;;5004413;28;20041;-72
2022/08/18 10:46:15;;;;;;;1.23;0.63;;;;;;;;;;4988832;28;20124;-72
2022/08/18 10:48:41;;;;;;;2.80;0.80;;;;;;;;;;5013278;28;20041;-73
2022/08/18 10:51:07;;;;;;;2.38;0.80;;;;;;;;;;5013423;28;20507;-73
2022/08/18 10:53:38;;;;;;;0.50;0.50;;;;;;;;;;5020989;28;20068;-73
2022/08/18 10:56:04;;;;;;;1.02;0.63;;;;;;;;;;5028535;28;20046;-73
2022/08/18 10:58:37;;;;;;;1.83;0.80;;;;;;;;;;5013559;28;20508;-72
2022/08/18 11:01:21;;;;;;;3.15;1.20;;;;;;;;;;5013467;28;20049;-73
2022/08/18 11:04:06;;;;;;;2.72;0.70;;;;;;;;;;5013588;28;20403;-72
2022/08/18 11:06:41;;;;;;;4.32;1.00;;;;;;;;;;5013340;28;20173;-72
2022/08/18 11:09:08;;;;;;;2.20;0.50;;;;;;;;;;5013800;28;20038;-73
2022/08/18 11:11:35;;;;;;;2.00;0.75;;;;;;;;;;5013251;28;20033;-72
2022/08/18 11:14:23;;;;;;;2.38;0.80;;;;;;;;;;5012577;28;20045;-72
2022/08/18 11:17:02;;;;;;;1.38;0.70;;;;;;;;;;5014200;28;20050;-73
2022/08/18 11:19:28;;;;;;;2.30;1.10;;;;;;;;;;5009359;28;20121;-73
2022/08/18 11:21:55;;;;;;;1.52;0.60;;;;;;;;;;5006458;28;20077;-73
2022/08/18 11:24:26;;;;;;;4.43;0.82;;;;;;;;;;5014070;28;20130;-72
2022/08/18 11:26:52;;;;;;;4.63;0.85;;;;;;;;;;5014520;28;20053;-72
2022/08/18 11:29:21;;;;;;;2.35;0.93;;;;;;;;;;5030562;28;20037;-72
2022/08/18 11:31:52;;;;;;;2.50;0.80;;;;;;;;;;5033956;28;20044;-73
2022/08/18 11:34:21;;;;;;;5.63;1.55;;;;;;;;;;5036027;28;20042;-73
2022/08/18 11:36:58;;;;;;;2.55;0.90;;;;;;;;;;5034902;28;20049;-73
2022/08/18 11:39:24;;;;;;;7.38;1.67;;;;;;;;;;5037352;28;20069;-73
2022/08/18 11:41:50;;;;;;;4.25;1.55;;;;;;;;;;5036650;28;20037;-73
2022/08/18 11:44:23;;;;;;;5.32;1.67;;;;;;;;;;5037095;28;20045;-73
2022/08/18 11:46:53;;;;;;;5.18;1.52;;;;;;;;;;5037392;28;20107;-73
2022/08/18 11:49:28;;;;;;;2.28;0.90;;;;;;;;;;5021821;28;20041;-73
2022/08/18 11:52:01;;;;;;;3.50;1.00;;;;;;;;;;5017072;28;20042;-73
2022/08/18 11:54:36;;;;;;;5.15;0.90;;;;;;;;;;5017362;28;20034;-73
2022/08/18 11:57:21;;;;;;;2.47;0.88;;;;;;;;;;5017176;28;20061;-73
2022/08/18 11:59:47;;;;;;;3.15;0.70;;;;;;;;;;5016763;28;20034;-73
2022/08/18 12:02:17;;;;;;;1.48;0.82;;;;;;;;;;5020904;28;20037;-73
2022/08/18 12:04:43;;;;;;;2.28;0.65;;;;;;;;;;5034367;28;20045;-73
2022/08/18 12:07:11;;;;;;;1.70;0.70;;;;;;;;;;5028945;28;20147;-73
2022/08/18 12:09:42;;;;;;;2.67;0.70;;;;;;;;;;5029831;28;20037;-74
2022/08/18 12:12:21;;;;;;;2.35;0.73;;;;;;;;;;5036328;28;20476;-74
2022/08/18 12:15:10;;;;;;;3.20;0.70;;;;;;;;;;5035869;28;20029;-73
2022/08/18 12:17:36;;;;;;;1.95;0.70;;;;;;;;;;5030810;28;20060;-74
2022/08/18 12:20:05;;;;;;;3.45;0.80;;;;;;;;;;5030910;28;20058;-73
2022/08/18 12:22:31;;;;;;;0.85;0.57;;;;;;;;;;5016215;28;20516;-73
2022/08/18 12:24:58;;;;;;;3.88;0.80;;;;;;;;;;5030399;28;20071;-73
2022/08/18 12:27:25;;;;;;;2.30;0.68;;;;;;;;;;5035747;28;20488;-73
2022/08/18 12:29:52;;;;;;;1.52;0.75;;;;;;;;;;5035065;28;20045;-73
2022/08/18 12:32:19;;;;;;;3.65;0.93;;;;;;;;;;5016255;28;20374;-73
2022/08/18 12:34:45;;;;;;;2.00;0.85;;;;;;;;;;5022489;28;20569;-73
2022/08/18 12:37:15;;;;;;;2.60;1.00;;;;;;;;;;5024948;28;20049;-73
2022/08/18 12:39:41;;;;;;;2.45;0.80;;;;;;;;;;5024117;28;20408;-73
2022/08/18 12:42:08;;;;;;;1.58;0.68;;;;;;;;;;5034449;28;20042;-73
2022/08/18 12:44:34;;;;;;;2.38;0.70;;;;;;;;;;5021684;28;20578;-73
2022/08/18 12:47:01;;;;;;;1.42;0.80;;;;;;;;;;5026209;28;20053;-73
2022/08/18 12:49:27;;;;;;;0.90;0.75;;;;;;;;;;4998548;28;20038;-73
2022/08/18 12:51:54;;;;;;;1.92;0.80;;;;;;;;;;5019964;28;20050;-70
2022/08/18 12:54:20;;;;;;;3.03;0.60;;;;;;;;;;5035432;28;20041;-70
2022/08/18 12:56:53;;;;;;;3.42;0.70;;;;;;;;;;5034481;28;20108;-70
2022/08/18 12:59:19;;;;;;;3.47;0.55;;;;;;;;;;5027697;28;20084;-70
2022/08/18 13:01:46;;;;;;;3.95;0.90;;;;;;;;;;5025596;28;20121;-70
2022/08/18 13:04:12;;;;;;;1.92;0.68;;;;;;;;;;5029819;28;20068;-70
2022/08/18 13:06:40;;;;;;;1.70;0.85;;;;;;;;;;5020268;28;20061;-70
2022/08/18 13:09:08;;;;;;;2.17;0.70;;;;;;;;;;5029016;28;20057;-71
2022/08/18 13:11:37;;;;;;;2.55;0.70;;;;;;;;;;5033538;28;20128;-70
2022/08/18 13:14:04;;;;;;;1.15;0.60;;;;;;;;;;5029835;28;20067;-71
2022/08/18 13:16:33;;;;;;;1.38;0.70;;;;;;;;;;5006373;28;20426;-71
2022/08/18 13:19:00;;;;;;;1.17;0.63;;;;;;;;;;5015610;28;20050;-71
2022/08/18 13:21:27;;;;;;;1.63;0.80;;;;;;;;;;5034824;28;20040;-72
2022/08/18 13:23:53;;;;;;;1.85;0.90;;;;;;;;;;5034711;28;20029;-72
2022/08/18 13:26:27;;;;;;;2.22;0.82;;;;;;;;;;5026025;28;20049;-72
2022/08/18 13:28:54;;;;;;;2.60;0.68;;;;;;;;;;5019958;28;20116;-72
2022/08/18 13:31:20;;;;;;;2.63;0.60;;;;;;;;;;5032323;28;20041;-73
2022/08/18 13:33:47;;;;;;;1.95;0.90;;;;;;;;;;5027186;28;20044;-72
2022/08/18 13:36:13;;;;;;;1.20;0.70;;;;;;;;;;5016179;28;20045;-74
2022/08/18 13:38:41;;;;;;;1.38;0.63;;;;;;;;;;5030113;28;20041;-73
2022/08/18 13:41:08;;;;;;;2.40;0.70;;;;;;;;;;5034048;28;20047;-74
2022/08/18 13:43:36;;;;;;;5.05;1.10;;;;;;;;;;5033379;28;20094;-71
2022/08/18 13:46:04;;;;;;;5.53;0.93;;;;;;;;;;5014798;28;20048;-74
2022/08/18 13:48:30;;;;;;;3.22;0.82;;;;;;;;;;5014351;28;20500;-72
2022/08/18 13:50:57;;;;;;;3.28;0.90;;;;;;;;;;5031003;28;20076;-71
2022/08/18 13:53:25;;;;;;;0.88;0.50;;;;;;;;;;5034305;28;20064;-71
2022/08/18 13:55:51;;;;;;;4.95;0.90;;;;;;;;;;5034193;28;20049;-71
2022/08/18 13:58:18;;;;;;;2.53;0.73;;;;;;;;;;5034034;28;20037;-71
2022/08/18 14:00:44;;;;;;;1.58;0.77;;;;;;;;;;5034587;28;20561;-70
2022/08/18 14:03:11;;;;;;;2.75;0.85;;;;;;;;;;5034597;28;20120;-70
2022/08/18 14:05:37;;;;;;;2.30;0.85;;;;;;;;;;5033606;28;20128;-71
2022/08/18 14:08:04;;;;;;;3.20;0.90;;;;;;;;;;5033712;28;20052;-71
2022/08/18 14:10:30;;;;;;;0.70;0.60;;;;;;;;;;5033452;28;20033;-71
2022/08/18 14:12:59;;;;;;;2.08;0.80;;;;;;;;;;5016029;28;20045;-71
2022/08/18 14:15:26;;;;;;;2.63;0.80;;;;;;;;;;5015534;28;20065;-70
2022/08/18 14:17:52;;;;;;;4.32;0.80;;;;;;;;;;5021603;28;20535;-70
2022/08/18 14:28:34;;;;;;;1.38;0.85;;;;;;;;;;5032941;28;20128;-71
2022/08/18 14:31:01;;;;;;;2.22;0.88;;;;;;;;;;5033351;28;20132;-70
2022/08/18 14:33:28;;;;;;;1.95;0.90;;;;;;;;;;5034365;28;20050;-71
2022/08/18 14:35:54;;;;;;;1.60;0.60;;;;;;;;;;5033755;28;20045;-72
2022/08/18 14:38:20;;;;;;;1.55;0.60;;;;;;;;;;5033776;28;20136;-72
2022/08/18 14:40:47;;;;;;;1.20;0.50;;;;;;;;;;5034351;28;20041;-70
2022/08/18 14:43:14;;;;;;;1.20;0.70;;;;;;;;;;5034223;28;20042;-70
2022/08/18 14:45:46;;;;;;;2.78;0.85;;;;;;;;;;5034419;28;20550;-70
2022/08/18 14:48:13;;;;;;;2.30;0.80;;;;;;;;;;5033658;28;20041;-70
2022/08/18 14:50:41;;;;;;;3.45;0.63;;;;;;;;;;5034061;28;20037;-72
2022/08/18 14:53:07;;;;;;;2.72;0.60;;;;;;;;;;5034152;28;20492;-71
2022/08/18 14:55:34;;;;;;;5.03;1.15;;;;;;;;;;5034170;28;20515;-72
2022/08/18 14:58:00;;;;;;;1.58;0.70;;;;;;;;;;5033290;28;20128;-71
2022/08/18 15:00:27;;;;;;;0.93;0.60;;;;;;;;;;5034081;28;20040;-70
2022/08/18 15:02:53;;;;;;;1.95;0.70;;;;;;;;;;5033881;28;20045;-72
2022/08/18 15:05:19;;;;;;;2.50;0.88;;;;;;;;;;5032557;28;20065;-70
2022/08/18 15:07:46;;;;;;;2.95;0.80;;;;;;;;;;5032145;28;20144;-71
2022/08/18 15:10:13;;;;;;;0.98;0.60;;;;;;;;;;5037061;28;20099;-72
2022/08/18 15:12:40;;;;;;;2.22;0.85;;;;;;;;;;5038063;28;20048;-72
2022/08/18 15:15:07;;;;;;;2.40;0.70;;;;;;;;;;5037867;28;20048;-71
2022/08/18 15:17:36;;;;;;;2.15;1.02;;;;;;;;;;5036459;28;20060;-71
2022/08/18 15:20:04;;;;;;;2.10;0.82;;;;;;;;;;5037211;28;20030;-70
2022/08/18 15:25:40;;;;;;;1.40;0.80;;;;;;;;;;5037414;28;20048;-71
2022/08/18 15:28:07;;;;;;;1.73;0.65;;;;;;;;;;5037197;28;20042;-71